Time;durP1;ratioP1;P1;durP2;ratioP2;P2;SDS_P1;SDS_P2;PMS_P1;PMS_P2;Temp;Humidity;BMP_temperature;BMP_pressure;BME280_temperature;BME280_humidity;BME280_pressure;Samples;Min_cycle;Max_cycle;Signal;HPM_P1;HPM_P2
2022/10/19 00:01:52;;;;;;;9.43;8.03;;;;;;;;;;5073252;28;20484;-76
2022/10/19 00:04:19;;;;;;;19.90;9.13;;;;;;;;;;5072938;28;20440;-77
2022/10/19 00:06:46;;;;;;;9.40;8.27;;;;;;;;;;5073147;28;20454;-76
2022/10/19 00:09:14;;;;;;;10.03;8.80;;;;;;;;;;5073097;28;20974;-76
2022/10/19 00:11:42;;;;;;;10.13;8.83;;;;;;;;;;5073466;28;20469;-75
2022/10/19 00:14:10;;;;;;;10.30;9.20;;;;;;;;;;5072763;28;20792;-75
2022/10/19 00:16:38;;;;;;;12.47;9.20;;;;;;;;;;5073319;28;20444;-77
2022/10/19 00:19:07;;;;;;;10.70;9.60;;;;;;;;;;5073392;28;20818;-77
2022/10/19 00:21:34;;;;;;;10.70;9.70;;;;;;;;;;5073015;28;20479;-76
2022/10/19 00:24:02;;;;;;;11.80;8.90;;;;;;;;;;5072657;28;20444;-77
2022/10/19 00:26:29;;;;;;;14.17;10.17;;;;;;;;;;5073315;28;20509;-76
2022/10/19 00:28:56;;;;;;;10.13;9.10;;;;;;;;;;5073368;28;20440;-77
2022/10/19 00:31:24;;;;;;;10.57;9.10;;;;;;;;;;5073038;28;20457;-76
2022/10/19 00:33:53;;;;;;;11.20;9.50;;;;;;;;;;5072333;28;20452;-75
2022/10/19 00:36:21;;;;;;;10.23;8.90;;;;;;;;;;5073407;28;20441;-77
2022/10/19 00:38:49;;;;;;;11.60;10.20;;;;;;;;;;5073512;28;20441;-76
2022/10/19 00:41:16;;;;;;;9.77;8.93;;;;;;;;;;5073020;28;20503;-76
2022/10/19 00:43:58;;;;;;;10.40;9.37;;;;;;;;;;5072470;28;20482;-76
2022/10/19 00:46:26;;;;;;;11.33;9.47;;;;;;;;;;5072769;28;20436;-78
2022/10/19 00:48:55;;;;;;;10.07;9.23;;;;;;;;;;5072614;28;20456;-76
2022/10/19 00:51:23;;;;;;;13.10;10.47;;;;;;;;;;5072582;28;20470;-77
2022/10/19 00:53:50;;;;;;;9.60;8.73;;;;;;;;;;5072351;28;20451;-77
2022/10/19 00:56:17;;;;;;;10.27;9.10;;;;;;;;;;5072794;28;20825;-76
2022/10/19 00:58:45;;;;;;;10.70;9.70;;;;;;;;;;5072960;28;20449;-76
2022/10/19 01:01:14;;;;;;;10.60;9.43;;;;;;;;;;5080521;28;20477;-75
2022/10/19 01:03:41;;;;;;;10.90;8.97;;;;;;;;;;5094624;28;20486;-76
2022/10/19 01:06:10;;;;;;;10.47;9.30;;;;;;;;;;5076811;28;20967;-76
2022/10/19 01:08:37;;;;;;;10.23;8.80;;;;;;;;;;5075080;28;20441;-75
2022/10/19 01:11:13;;;;;;;9.77;8.87;;;;;;;;;;5074759;28;20483;-76
2022/10/19 01:13:45;;;;;;;10.27;9.23;;;;;;;;;;5052650;28;20456;-76
2022/10/19 01:16:15;;;;;;;10.07;9.10;;;;;;;;;;5053784;28;20445;-76
2022/10/19 01:18:45;;;;;;;10.83;8.83;;;;;;;;;;5052458;28;20449;-75
2022/10/19 01:21:20;;;;;;;11.17;10.07;;;;;;;;;;5052601;28;20508;-76
2022/10/19 01:23:57;;;;;;;10.70;9.60;;;;;;;;;;5051635;28;20452;-75
2022/10/19 01:26:32;;;;;;;11.60;10.40;;;;;;;;;;5052403;28;20956;-76
2022/10/19 01:29:06;;;;;;;14.67;10.70;;;;;;;;;;5052665;28;20456;-75
2022/10/19 01:31:38;;;;;;;13.37;11.07;;;;;;;;;;5052563;28;20498;-76
2022/10/19 01:34:08;;;;;;;14.73;12.00;;;;;;;;;;5055571;28;20463;-76
2022/10/19 01:36:40;;;;;;;16.30;11.20;;;;;;;;;;5051869;28;20854;-76
2022/10/19 01:39:10;;;;;;;12.60;11.30;;;;;;;;;;5051503;28;20936;-76
2022/10/19 01:41:44;;;;;;;13.43;11.17;;;;;;;;;;5051585;28;20484;-76
2022/10/19 01:44:14;;;;;;;14.33;11.47;;;;;;;;;;5053960;28;20457;-75
2022/10/19 01:46:44;;;;;;;13.20;10.03;;;;;;;;;;5057928;28;20437;-76
2022/10/19 01:49:14;;;;;;;14.40;11.40;;;;;;;;;;5055570;28;20460;-75
2022/10/19 01:51:42;;;;;;;13.43;11.40;;;;;;;;;;5056410;28;20461;-75
2022/10/19 01:54:12;;;;;;;12.20;10.90;;;;;;;;;;5055858;28;20445;-75
2022/10/19 01:56:41;;;;;;;14.13;11.50;;;;;;;;;;5054201;28;20438;-76
2022/10/19 01:59:09;;;;;;;12.80;11.40;;;;;;;;;;5051376;28;20460;-75
2022/10/19 02:01:37;;;;;;;16.03;13.73;;;;;;;;;;5051327;28;20489;-75
2022/10/19 02:04:06;;;;;;;26.77;15.33;;;;;;;;;;5050435;28;20591;-76
2022/10/19 02:06:33;;;;;;;21.23;14.40;;;;;;;;;;5051617;28;20441;-75
2022/10/19 02:09:00;;;;;;;21.40;15.10;;;;;;;;;;5051608;28;20814;-76
2022/10/19 02:11:27;;;;;;;26.17;16.17;;;;;;;;;;5052618;28;20466;-76
2022/10/19 02:13:57;;;;;;;28.57;15.67;;;;;;;;;;5070899;28;20440;-76
2022/10/19 02:16:26;;;;;;;35.70;17.77;;;;;;;;;;5071277;28;20444;-76
2022/10/19 02:18:54;;;;;;;30.13;17.43;;;;;;;;;;5071389;28;20932;-76
2022/10/19 02:21:23;;;;;;;30.50;17.07;;;;;;;;;;5071485;28;20483;-76
2022/10/19 02:23:50;;;;;;;39.50;19.43;;;;;;;;;;5071483;28;20436;-76
2022/10/19 02:26:17;;;;;;;39.73;20.33;;;;;;;;;;5070841;28;20760;-76
2022/10/19 02:28:44;;;;;;;36.57;20.40;;;;;;;;;;5071017;28;20478;-76
2022/10/19 02:31:12;;;;;;;46.33;20.70;;;;;;;;;;5070647;28;20461;-75
2022/10/19 02:33:39;;;;;;;41.03;21.23;;;;;;;;;;5071114;28;20452;-75
2022/10/19 02:36:06;;;;;;;49.27;21.37;;;;;;;;;;5071479;28;20445;-76
2022/10/19 02:38:35;;;;;;;40.73;20.33;;;;;;;;;;5071332;28;20444;-75
2022/10/19 02:41:05;;;;;;;45.90;22.13;;;;;;;;;;5070955;28;20468;-75
2022/10/19 02:43:34;;;;;;;38.77;21.10;;;;;;;;;;5071203;28;20921;-76
2022/10/19 02:46:03;;;;;;;45.17;22.33;;;;;;;;;;5071237;28;20924;-76
2022/10/19 02:48:31;;;;;;;44.00;23.77;;;;;;;;;;5070798;28;20456;-76
2022/10/19 02:50:58;;;;;;;45.07;21.77;;;;;;;;;;5071193;28;20467;-76
2022/10/19 02:53:25;;;;;;;44.70;23.97;;;;;;;;;;5070268;28;20798;-75
2022/10/19 02:55:54;;;;;;;42.13;22.50;;;;;;;;;;5070665;28;20936;-77
2022/10/19 02:58:21;;;;;;;42.87;23.27;;;;;;;;;;5071281;28;20451;-77
2022/10/19 03:00:48;;;;;;;35.77;21.87;;;;;;;;;;5071026;28;20468;-76
2022/10/19 03:03:15;;;;;;;43.07;23.30;;;;;;;;;;5070519;28;20491;-76
2022/10/19 03:05:42;;;;;;;41.30;22.03;;;;;;;;;;5071235;28;20445;-76
2022/10/19 03:08:09;;;;;;;51.63;23.83;;;;;;;;;;5071296;28;20820;-76
2022/10/19 03:10:36;;;;;;;44.33;24.00;;;;;;;;;;5070591;28;20491;-76
2022/10/19 03:13:05;;;;;;;45.10;23.50;;;;;;;;;;5070469;28;20924;-75
2022/10/19 03:15:32;;;;;;;42.63;23.30;;;;;;;;;;5070954;28;20452;-76
2022/10/19 03:17:59;;;;;;;43.97;23.17;;;;;;;;;;5070510;28;20844;-75
2022/10/19 03:20:26;;;;;;;45.80;22.47;;;;;;;;;;5070562;28;20456;-75
2022/10/19 03:22:53;;;;;;;49.03;23.17;;;;;;;;;;5070070;28;20484;-76
2022/10/19 03:25:20;;;;;;;34.30;20.10;;;;;;;;;;5070448;28;20946;-76
2022/10/19 03:27:47;;;;;;;40.93;23.27;;;;;;;;;;5071194;28;21079;-75
2022/10/19 03:30:15;;;;;;;41.03;19.73;;;;;;;;;;5070700;28;20822;-76
2022/10/19 03:32:42;;;;;;;33.07;19.87;;;;;;;;;;5070207;28;20446;-75
2022/10/19 03:35:10;;;;;;;28.20;19.23;;;;;;;;;;5070657;28;20449;-75
2022/10/19 03:37:37;;;;;;;38.60;20.30;;;;;;;;;;5072753;28;20448;-75
2022/10/19 03:40:04;;;;;;;37.87;19.07;;;;;;;;;;5074331;28;20943;-76
2022/10/19 03:42:31;;;;;;;31.27;19.97;;;;;;;;;;5073582;28;20824;-75
2022/10/19 03:44:58;;;;;;;34.00;19.23;;;;;;;;;;5073966;28;20444;-76
2022/10/19 03:47:26;;;;;;;29.97;18.60;;;;;;;;;;5074271;28;20444;-76
2022/10/19 03:49:53;;;;;;;29.57;19.67;;;;;;;;;;5074265;28;20990;-76
2022/10/19 03:52:21;;;;;;;32.03;18.90;;;;;;;;;;5073818;28;20757;-76
2022/10/19 03:54:50;;;;;;;39.23;20.00;;;;;;;;;;5073790;28;20444;-76
2022/10/19 03:57:17;;;;;;;32.17;19.10;;;;;;;;;;5073756;28;20455;-76
2022/10/19 03:59:44;;;;;;;34.07;19.20;;;;;;;;;;5073976;28;20524;-76
2022/10/19 04:02:11;;;;;;;38.33;21.43;;;;;;;;;;5074065;28;20476;-76
2022/10/19 04:04:39;;;;;;;39.50;19.80;;;;;;;;;;5073296;28;20444;-76
2022/10/19 04:07:06;;;;;;;31.70;19.87;;;;;;;;;;5073818;28;20440;-75
2022/10/19 04:09:33;;;;;;;35.67;20.27;;;;;;;;;;5074006;28;20460;-75
2022/10/19 04:12:00;;;;;;;35.97;20.60;;;;;;;;;;5067873;28;20461;-76
2022/10/19 04:14:27;;;;;;;39.17;22.33;;;;;;;;;;5052910;28;20452;-75
2022/10/19 04:16:54;;;;;;;34.93;20.30;;;;;;;;;;5053875;28;20450;-75
2022/10/19 04:19:21;;;;;;;38.30;21.30;;;;;;;;;;5059081;28;20442;-76
2022/10/19 04:21:50;;;;;;;37.80;22.30;;;;;;;;;;5059640;28;20837;-76
2022/10/19 04:24:18;;;;;;;40.17;22.37;;;;;;;;;;5067611;28;20441;-76
2022/10/19 04:26:46;;;;;;;36.93;22.20;;;;;;;;;;5077227;28;20440;-76
2022/10/19 04:29:14;;;;;;;41.90;23.00;;;;;;;;;;5074723;28;20607;-75
2022/10/19 04:31:42;;;;;;;41.23;22.70;;;;;;;;;;5072010;28;20453;-77
2022/10/19 04:34:09;;;;;;;36.80;22.33;;;;;;;;;;5063004;28;20438;-77
2022/10/19 04:36:36;;;;;;;31.90;21.90;;;;;;;;;;5061840;28;20449;-77
2022/10/19 04:39:05;;;;;;;35.70;23.57;;;;;;;;;;5056937;28;20442;-77
2022/10/19 04:41:32;;;;;;;33.87;24.00;;;;;;;;;;5055899;28;20977;-78
2022/10/19 04:44:00;;;;;;;40.33;22.67;;;;;;;;;;5053433;28;20477;-77
2022/10/19 04:46:28;;;;;;;41.67;23.77;;;;;;;;;;5054282;28;20460;-76
2022/10/19 04:48:56;;;;;;;31.97;21.93;;;;;;;;;;5054991;28;20457;-76
2022/10/19 04:51:23;;;;;;;32.77;21.93;;;;;;;;;;5054764;28;20472;-77
2022/10/19 04:53:50;;;;;;;36.33;22.93;;;;;;;;;;5053983;28;20442;-76
2022/10/19 04:56:20;;;;;;;33.10;22.60;;;;;;;;;;5053406;28;20825;-76
2022/10/19 04:58:47;;;;;;;31.10;22.30;;;;;;;;;;5053870;28;20437;-76
2022/10/19 05:01:15;;;;;;;28.70;22.07;;;;;;;;;;5053107;28;20981;-76
2022/10/19 05:03:42;;;;;;;30.33;22.90;;;;;;;;;;5052364;28;20557;-77
2022/10/19 05:06:10;;;;;;;32.37;22.63;;;;;;;;;;5053565;28;20453;-78
2022/10/19 05:08:37;;;;;;;32.73;23.23;;;;;;;;;;5053278;28;20452;-76
2022/10/19 05:11:05;;;;;;;36.73;23.10;;;;;;;;;;5052677;28;20801;-77
2022/10/19 05:13:34;;;;;;;33.53;24.57;;;;;;;;;;5071019;28;20444;-77
2022/10/19 05:16:02;;;;;;;28.40;22.40;;;;;;;;;;5072612;28;20437;-76
2022/10/19 05:18:29;;;;;;;24.27;20.60;;;;;;;;;;5072744;28;20467;-77
2022/10/19 05:21:01;;;;;;;26.20;21.87;;;;;;;;;;5072444;28;20468;-77
2022/10/19 05:23:28;;;;;;;29.23;23.00;;;;;;;;;;5072274;28;20511;-77
2022/10/19 05:25:59;;;;;;;25.03;21.10;;;;;;;;;;5072579;28;20781;-77
2022/10/19 05:28:26;;;;;;;25.40;20.10;;;;;;;;;;5072778;28;20452;-78
2022/10/19 05:30:55;;;;;;;22.77;20.33;;;;;;;;;;5072362;28;20755;-76
2022/10/19 05:33:22;;;;;;;27.47;20.70;;;;;;;;;;5068605;28;20453;-77
2022/10/19 05:35:49;;;;;;;23.53;19.20;;;;;;;;;;5065343;28;20467;-77
2022/10/19 05:38:16;;;;;;;22.47;19.57;;;;;;;;;;5065817;28;20464;-77
2022/10/19 05:40:46;;;;;;;21.93;19.63;;;;;;;;;;5064346;28;20932;-77
2022/10/19 05:43:13;;;;;;;22.33;18.23;;;;;;;;;;5072172;28;20575;-78
2022/10/19 05:45:40;;;;;;;22.10;19.00;;;;;;;;;;5072706;28;20449;-77
2022/10/19 05:48:09;;;;;;;22.13;19.83;;;;;;;;;;5072126;28;20623;-77
2022/10/19 05:50:38;;;;;;;26.77;20.70;;;;;;;;;;5064519;28;21008;-77
2022/10/19 05:53:05;;;;;;;27.63;20.37;;;;;;;;;;5068606;28;20827;-77
2022/10/19 05:55:35;;;;;;;24.03;18.70;;;;;;;;;;5081132;28;20966;-77
2022/10/19 05:58:02;;;;;;;21.57;19.30;;;;;;;;;;5091922;28;20460;-77
2022/10/19 06:00:29;;;;;;;26.97;19.90;;;;;;;;;;5092493;28;20460;-78
2022/10/19 06:02:56;;;;;;;29.70;21.60;;;;;;;;;;5092120;28;20476;-76
2022/10/19 06:05:24;;;;;;;23.83;19.80;;;;;;;;;;5092113;28;20447;-76
2022/10/19 06:07:51;;;;;;;24.20;20.80;;;;;;;;;;5082602;28;20437;-78
2022/10/19 06:10:20;;;;;;;23.87;21.07;;;;;;;;;;5071688;28;20467;-77
2022/10/19 06:12:47;;;;;;;23.70;20.80;;;;;;;;;;5071093;28;20453;-78
2022/10/19 06:15:14;;;;;;;27.00;21.70;;;;;;;;;;5071986;28;20681;-77
2022/10/19 06:17:41;;;;;;;22.80;20.30;;;;;;;;;;5072214;28;20452;-77
2022/10/19 06:20:08;;;;;;;23.30;20.47;;;;;;;;;;5073338;28;20452;-77
2022/10/19 06:22:36;;;;;;;24.50;21.37;;;;;;;;;;5070036;28;20481;-77
2022/10/19 06:25:04;;;;;;;32.13;22.30;;;;;;;;;;5068535;28;20450;-77
2022/10/19 06:27:32;;;;;;;23.67;21.13;;;;;;;;;;5063049;28;20441;-77
2022/10/19 06:29:59;;;;;;;22.30;20.00;;;;;;;;;;5072804;28;20449;-77
2022/10/19 06:32:27;;;;;;;24.70;20.60;;;;;;;;;;5072057;28;20460;-78
2022/10/19 06:34:54;;;;;;;25.00;20.60;;;;;;;;;;5071990;28;20515;-77
2022/10/19 06:37:21;;;;;;;24.67;20.00;;;;;;;;;;5072010;28;20447;-77
2022/10/19 06:39:49;;;;;;;23.90;20.07;;;;;;;;;;5072625;28;20451;-78
2022/10/19 06:42:16;;;;;;;24.20;20.43;;;;;;;;;;5087213;28;20463;-77
2022/10/19 06:44:44;;;;;;;21.27;18.70;;;;;;;;;;5090905;28;20561;-77
2022/10/19 06:47:11;;;;;;;23.80;19.43;;;;;;;;;;5090923;28;20501;-76
2022/10/19 06:49:38;;;;;;;22.00;19.43;;;;;;;;;;5091056;28;20925;-78
2022/10/19 06:52:06;;;;;;;21.60;19.30;;;;;;;;;;5091062;28;20471;-77
2022/10/19 06:54:33;;;;;;;19.80;17.60;;;;;;;;;;5090969;28;20443;-77
2022/10/19 06:57:01;;;;;;;17.00;15.20;;;;;;;;;;5091239;28;20461;-76
2022/10/19 06:59:28;;;;;;;18.13;16.23;;;;;;;;;;5091122;28;20444;-78
2022/10/19 07:01:56;;;;;;;18.50;16.50;;;;;;;;;;5091081;28;20463;-77
2022/10/19 07:04:23;;;;;;;20.60;16.97;;;;;;;;;;5092312;28;20518;-78
2022/10/19 07:06:50;;;;;;;18.43;16.60;;;;;;;;;;5091693;28;20444;-78
2022/10/19 07:09:18;;;;;;;19.63;16.77;;;;;;;;;;5087703;28;20441;-77
2022/10/19 07:11:46;;;;;;;23.10;17.57;;;;;;;;;;5072219;28;20473;-77
2022/10/19 07:14:15;;;;;;;19.33;17.47;;;;;;;;;;5074266;28;20527;-78
2022/10/19 07:16:42;;;;;;;20.47;18.20;;;;;;;;;;5074925;28;20811;-78
2022/10/19 07:19:09;;;;;;;20.23;18.13;;;;;;;;;;5093046;28;20435;-77
2022/10/19 07:21:40;;;;;;;22.47;18.13;;;;;;;;;;5095454;28;20528;-77
2022/10/19 07:24:07;;;;;;;23.17;19.10;;;;;;;;;;5095145;28;20957;-77
2022/10/19 07:26:34;;;;;;;22.03;18.93;;;;;;;;;;5094983;28;20458;-78
2022/10/19 07:29:01;;;;;;;23.13;20.63;;;;;;;;;;5095289;28;20455;-78
2022/10/19 07:31:30;;;;;;;23.30;19.50;;;;;;;;;;5095444;28;20467;-78
2022/10/19 07:33:58;;;;;;;21.83;19.27;;;;;;;;;;5094801;28;20491;-76
2022/10/19 07:36:25;;;;;;;23.27;19.73;;;;;;;;;;5094786;28;20451;-78
2022/10/19 07:38:53;;;;;;;21.40;17.37;;;;;;;;;;5095015;28;20458;-77
2022/10/19 07:41:20;;;;;;;19.13;17.13;;;;;;;;;;5095166;28;20468;-77
2022/10/19 07:43:48;;;;;;;19.83;17.73;;;;;;;;;;5094644;28;20476;-77
2022/10/19 07:46:16;;;;;;;20.03;17.83;;;;;;;;;;5094770;28;20451;-78
2022/10/19 07:48:45;;;;;;;18.70;16.90;;;;;;;;;;5094429;28;20451;-77
2022/10/19 07:51:12;;;;;;;18.00;15.90;;;;;;;;;;5094271;28;20463;-77
2022/10/19 07:53:40;;;;;;;24.07;17.43;;;;;;;;;;5093460;28;20802;-77
2022/10/19 07:56:08;;;;;;;18.63;15.83;;;;;;;;;;5070667;28;20441;-78
2022/10/19 07:58:36;;;;;;;16.73;14.93;;;;;;;;;;5074158;28;20441;-78
2022/10/19 08:01:03;;;;;;;16.00;14.30;;;;;;;;;;5073659;28;21006;-77
2022/10/19 08:03:30;;;;;;;17.20;14.23;;;;;;;;;;5074144;28;20472;-77
2022/10/19 08:06:01;;;;;;;17.70;15.27;;;;;;;;;;5074207;28;20447;-76
2022/10/19 08:08:28;;;;;;;14.23;12.83;;;;;;;;;;5074337;28;20425;-77
2022/10/19 08:10:55;;;;;;;16.43;13.50;;;;;;;;;;5073772;28;20465;-78
2022/10/19 08:13:22;;;;;;;15.13;12.07;;;;;;;;;;5074102;28;20441;-77
2022/10/19 08:15:50;;;;;;;15.10;12.53;;;;;;;;;;5074257;28;20452;-77
2022/10/19 08:18:17;;;;;;;15.70;12.67;;;;;;;;;;5073387;28;20452;-78
2022/10/19 08:20:44;;;;;;;13.47;11.87;;;;;;;;;;5073272;28;20914;-77
2022/10/19 08:23:13;;;;;;;13.63;12.33;;;;;;;;;;5072826;28;20476;-77
2022/10/19 08:25:40;;;;;;;14.60;12.07;;;;;;;;;;5073609;28;20437;-77
2022/10/19 08:28:07;;;;;;;14.70;13.27;;;;;;;;;;5073511;28;20448;-77
2022/10/19 08:30:35;;;;;;;16.00;11.60;;;;;;;;;;5073606;28;20477;-77
2022/10/19 08:33:04;;;;;;;13.17;11.77;;;;;;;;;;5073290;28;20441;-77
2022/10/19 08:35:31;;;;;;;14.20;12.70;;;;;;;;;;5073850;28;20566;-76
2022/10/19 08:37:58;;;;;;;14.53;13.23;;;;;;;;;;5073861;28;20447;-76
2022/10/19 08:40:27;;;;;;;14.60;13.20;;;;;;;;;;5073547;28;20480;-77
2022/10/19 08:42:58;;;;;;;13.97;12.43;;;;;;;;;;5073363;28;20436;-77
2022/10/19 08:45:39;;;;;;;12.80;11.50;;;;;;;;;;5073778;28;20425;-77
2022/10/19 08:48:35;;;;;;;13.50;12.10;;;;;;;;;;5073987;28;20475;-79
2022/10/19 08:51:03;;;;;;;12.60;11.30;;;;;;;;;;5039178;28;20511;-78
2022/10/19 08:53:33;;;;;;;13.90;12.60;;;;;;;;;;5085213;28;20416;-78
2022/10/19 08:56:15;;;;;;;12.97;11.67;;;;;;;;;;5082575;28;20475;-76
2022/10/19 08:58:52;;;;;;;12.60;11.37;;;;;;;;;;5078242;28;20862;-77
2022/10/19 09:01:25;;;;;;;11.77;10.67;;;;;;;;;;5078394;28;20463;-77
2022/10/19 09:03:55;;;;;;;11.10;10.00;;;;;;;;;;5077939;28;20461;-76
2022/10/19 09:06:24;;;;;;;12.37;11.13;;;;;;;;;;5078135;28;20475;-77
2022/10/19 09:08:52;;;;;;;10.10;9.10;;;;;;;;;;5075919;28;20441;-76
2022/10/19 09:11:24;;;;;;;11.23;10.20;;;;;;;;;;5075707;28;20479;-76
2022/10/19 09:13:58;;;;;;;9.83;8.90;;;;;;;;;;5073852;28;20440;-76
2022/10/19 09:16:26;;;;;;;11.43;10.33;;;;;;;;;;5075413;28;20437;-77
2022/10/19 09:18:53;;;;;;;10.67;9.47;;;;;;;;;;5073773;28;20453;-77
2022/10/19 09:21:21;;;;;;;9.07;8.27;;;;;;;;;;5073306;28;20461;-77
2022/10/19 09:23:54;;;;;;;8.93;8.23;;;;;;;;;;5072743;28;20487;-76
2022/10/19 09:26:22;;;;;;;10.03;8.83;;;;;;;;;;5072909;28;20445;-78
2022/10/19 09:28:51;;;;;;;9.63;8.43;;;;;;;;;;5072640;28;20444;-76
2022/10/19 09:31:22;;;;;;;9.20;8.40;;;;;;;;;;5072367;28;20470;-77
2022/10/19 09:33:54;;;;;;;9.43;8.63;;;;;;;;;;5071083;28;20426;-77
2022/10/19 09:36:22;;;;;;;8.97;8.27;;;;;;;;;;5071644;28;20849;-76
2022/10/19 09:38:50;;;;;;;11.37;9.27;;;;;;;;;;5072278;28;20463;-76
2022/10/19 09:41:18;;;;;;;9.83;8.83;;;;;;;;;;5071635;28;20464;-76
2022/10/19 09:43:51;;;;;;;8.10;7.40;;;;;;;;;;5070849;28;20797;-77
2022/10/19 09:46:27;;;;;;;8.33;7.60;;;;;;;;;;5072091;28;20532;-76
2022/10/19 09:48:54;;;;;;;7.27;6.73;;;;;;;;;;5072126;28;20463;-76
2022/10/19 09:51:22;;;;;;;6.90;6.30;;;;;;;;;;5072035;28;20465;-77
2022/10/19 09:53:50;;;;;;;7.60;6.57;;;;;;;;;;5070918;28;20436;-77
2022/10/19 09:56:18;;;;;;;6.50;6.00;;;;;;;;;;5071950;28;20471;-77
2022/10/19 09:58:47;;;;;;;7.37;6.27;;;;;;;;;;5071564;28;20453;-78
2022/10/19 10:01:29;;;;;;;5.90;5.50;;;;;;;;;;5071595;28;20539;-76
2022/10/19 10:04:06;;;;;;;7.47;6.87;;;;;;;;;;5070502;28;21017;-76
2022/10/19 10:06:34;;;;;;;7.23;6.63;;;;;;;;;;5071305;28;20441;-77
2022/10/19 10:09:02;;;;;;;6.60;6.10;;;;;;;;;;5071419;28;20593;-77
2022/10/19 10:11:31;;;;;;;6.90;6.40;;;;;;;;;;5072062;28;20491;-76
2022/10/19 10:14:00;;;;;;;7.50;6.90;;;;;;;;;;5074753;28;20432;-77
2022/10/19 10:16:29;;;;;;;7.10;6.50;;;;;;;;;;5076078;28;20525;-77
2022/10/19 10:18:57;;;;;;;7.93;6.47;;;;;;;;;;5076521;28;20452;-77
2022/10/19 10:21:27;;;;;;;6.37;5.80;;;;;;;;;;5075116;28;20828;-77
2022/10/19 10:24:05;;;;;;;6.30;5.80;;;;;;;;;;5074090;28;20468;-78
2022/10/19 10:26:33;;;;;;;6.43;5.73;;;;;;;;;;5075465;28;20433;-76
2022/10/19 10:29:00;;;;;;;6.37;5.73;;;;;;;;;;5072110;28;20590;-76
2022/10/19 10:31:28;;;;;;;5.73;5.30;;;;;;;;;;5072759;28;20490;-77
2022/10/19 10:33:58;;;;;;;5.60;5.20;;;;;;;;;;5072791;28;20476;-77
2022/10/19 10:36:28;;;;;;;5.60;5.10;;;;;;;;;;5072636;28;20535;-77
2022/10/19 10:38:57;;;;;;;6.03;4.77;;;;;;;;;;5073316;28;20437;-77
2022/10/19 10:41:27;;;;;;;4.93;4.53;;;;;;;;;;5076251;28;20473;-77
2022/10/19 10:43:56;;;;;;;5.17;4.77;;;;;;;;;;5070519;28;20940;-77
2022/10/19 10:46:24;;;;;;;4.93;4.50;;;;;;;;;;5072257;28;20447;-76
2022/10/19 10:48:57;;;;;;;4.43;4.10;;;;;;;;;;5072491;28;20460;-78
2022/10/19 10:51:29;;;;;;;5.47;4.97;;;;;;;;;;5087133;28;20468;-76
2022/10/19 10:54:10;;;;;;;4.27;3.93;;;;;;;;;;5091669;28;20439;-76
2022/10/19 10:56:39;;;;;;;4.60;4.30;;;;;;;;;;5066272;28;20574;-78
2022/10/19 10:59:10;;;;;;;6.33;5.30;;;;;;;;;;5053342;28;21039;-76
2022/10/19 11:01:40;;;;;;;4.90;4.50;;;;;;;;;;5064970;28;20469;-76
2022/10/19 11:04:11;;;;;;;5.03;4.70;;;;;;;;;;5062415;28;20471;-76
2022/10/19 11:06:48;;;;;;;4.97;4.57;;;;;;;;;;5070099;28;20451;-78
2022/10/19 11:09:22;;;;;;;5.10;4.50;;;;;;;;;;5073361;28;20456;-76
2022/10/19 11:11:54;;;;;;;5.00;4.50;;;;;;;;;;5074891;28;20452;-77
2022/10/19 11:14:26;;;;;;;5.30;4.33;;;;;;;;;;5090069;28;20428;-77
2022/10/19 11:16:55;;;;;;;4.23;3.93;;;;;;;;;;5102029;28;20498;-77
2022/10/19 11:19:24;;;;;;;6.67;3.90;;;;;;;;;;5102140;28;20435;-77
2022/10/19 11:21:54;;;;;;;5.00;3.83;;;;;;;;;;5103873;28;20468;-78
2022/10/19 11:24:25;;;;;;;4.63;4.30;;;;;;;;;;5097443;28;20471;-78
2022/10/19 11:26:57;;;;;;;5.00;4.60;;;;;;;;;;5089137;28;20464;-77
2022/10/19 11:29:31;;;;;;;4.60;4.30;;;;;;;;;;5066421;28;20440;-76
2022/10/19 11:31:58;;;;;;;4.90;4.50;;;;;;;;;;5070816;28;20488;-77
2022/10/19 11:34:41;;;;;;;4.60;4.30;;;;;;;;;;5066489;28;20433;-78
2022/10/19 11:37:14;;;;;;;5.03;4.63;;;;;;;;;;5073330;28;20475;-77
2022/10/19 11:39:47;;;;;;;4.27;3.77;;;;;;;;;;5079436;28;20437;-77
2022/10/19 11:42:18;;;;;;;4.93;3.93;;;;;;;;;;5085856;28;20491;-77
2022/10/19 11:44:50;;;;;;;4.97;3.90;;;;;;;;;;5076071;28;20456;-76
2022/10/19 11:47:33;;;;;;;4.93;4.53;;;;;;;;;;5070327;28;20429;-78
2022/10/19 11:50:05;;;;;;;4.37;4.03;;;;;;;;;;5070310;28;20417;-77
2022/10/19 11:52:35;;;;;;;4.73;4.23;;;;;;;;;;5071459;28;20425;-76
2022/10/19 11:55:11;;;;;;;4.60;4.20;;;;;;;;;;5070502;28;20900;-77
2022/10/19 11:57:41;;;;;;;4.27;3.87;;;;;;;;;;5071304;28;20485;-77
2022/10/19 12:00:10;;;;;;;4.17;3.87;;;;;;;;;;5073704;28;20825;-76
2022/10/19 12:03:04;;;;;;;5.77;4.10;;;;;;;;;;5074222;28;20471;-78
2022/10/19 12:05:33;;;;;;;5.20;4.80;;;;;;;;;;5037447;28;20503;-77
2022/10/19 12:08:09;;;;;;;4.57;4.27;;;;;;;;;;5073879;28;20440;-79
2022/10/19 12:10:41;;;;;;;4.40;4.00;;;;;;;;;;5073557;28;20456;-76
2022/10/19 12:13:10;;;;;;;4.97;4.47;;;;;;;;;;5058536;28;20453;-77
2022/10/19 12:15:40;;;;;;;4.37;3.97;;;;;;;;;;5054219;28;20942;-78
2022/10/19 12:18:11;;;;;;;4.70;3.97;;;;;;;;;;5054625;28;20517;-78
2022/10/19 12:20:40;;;;;;;3.80;3.50;;;;;;;;;;5055137;28;20490;-78
2022/10/19 12:23:12;;;;;;;4.50;4.10;;;;;;;;;;5066603;28;20445;-77
2022/10/19 12:25:43;;;;;;;4.73;4.40;;;;;;;;;;5078932;28;20461;-78
2022/10/19 12:28:11;;;;;;;3.90;3.60;;;;;;;;;;5079267;28;20437;-77
2022/10/19 12:30:39;;;;;;;4.27;3.90;;;;;;;;;;5079020;28;20460;-78
2022/10/19 12:33:10;;;;;;;5.03;4.70;;;;;;;;;;5059094;28;20438;-79
2022/10/19 12:35:46;;;;;;;5.00;4.60;;;;;;;;;;5054939;28;20789;-79
2022/10/19 12:38:16;;;;;;;4.87;4.40;;;;;;;;;;5054006;28;20418;-78
2022/10/19 12:40:46;;;;;;;4.40;4.00;;;;;;;;;;5053806;28;20469;-79
2022/10/19 12:43:16;;;;;;;4.60;4.30;;;;;;;;;;5052957;28;20448;-79
2022/10/19 12:45:48;;;;;;;5.03;4.73;;;;;;;;;;5057366;28;20468;-78
2022/10/19 12:48:18;;;;;;;4.83;4.53;;;;;;;;;;5061929;28;20576;-79
2022/10/19 12:51:13;;;;;;;5.40;4.60;;;;;;;;;;5055124;28;20513;-78
2022/10/19 12:53:43;;;;;;;5.27;4.87;;;;;;;;;;5041005;28;20456;-76
2022/10/19 12:56:14;;;;;;;4.90;4.47;;;;;;;;;;5073934;28;20804;-77
2022/10/19 12:58:45;;;;;;;6.97;6.10;;;;;;;;;;5073878;28;20436;-78
2022/10/19 13:01:16;;;;;;;5.43;5.07;;;;;;;;;;5074116;28;20806;-77
2022/10/19 13:03:45;;;;;;;5.53;5.13;;;;;;;;;;5074312;28;20437;-78
2022/10/19 13:06:14;;;;;;;6.93;5.60;;;;;;;;;;5074759;28;20793;-78
2022/10/19 13:08:43;;;;;;;4.53;4.13;;;;;;;;;;5075115;28;20440;-78
2022/10/19 13:11:13;;;;;;;4.40;4.10;;;;;;;;;;5073627;28;20987;-77
2022/10/19 13:13:59;;;;;;;6.10;5.60;;;;;;;;;;5073559;28;20965;-78
2022/10/19 13:16:44;;;;;;;7.03;4.20;;;;;;;;;;5074471;28;20480;-77
2022/10/19 13:19:19;;;;;;;5.70;4.30;;;;;;;;;;5073912;28;20444;-77
2022/10/19 13:21:53;;;;;;;4.50;4.20;;;;;;;;;;5073493;28;21125;-77
2022/10/19 13:24:31;;;;;;;4.60;4.30;;;;;;;;;;5074695;28;20421;-79
2022/10/19 13:27:17;;;;;;;4.57;4.17;;;;;;;;;;5092730;28;20413;-77
2022/10/19 13:29:46;;;;;;;4.63;4.33;;;;;;;;;;5086392;28;20438;-78
2022/10/19 13:32:33;;;;;;;4.60;4.30;;;;;;;;;;5087056;28;20449;-78
2022/10/19 13:35:15;;;;;;;5.00;4.70;;;;;;;;;;5086481;28;20433;-77
2022/10/19 13:37:43;;;;;;;4.03;3.83;;;;;;;;;;5073573;28;20433;-77
2022/10/19 13:40:19;;;;;;;4.57;4.17;;;;;;;;;;5073653;28;20449;-78
2022/10/19 13:42:46;;;;;;;4.50;4.20;;;;;;;;;;5072854;28;20420;-77
2022/10/19 13:45:23;;;;;;;4.50;4.10;;;;;;;;;;5072547;28;20476;-77
2022/10/19 13:47:51;;;;;;;4.40;3.93;;;;;;;;;;5072846;28;20456;-78
2022/10/19 13:50:33;;;;;;;5.80;4.40;;;;;;;;;;5072728;28;20425;-77
2022/10/19 13:53:21;;;;;;;5.47;4.33;;;;;;;;;;5070300;28;20944;-77
2022/10/19 13:56:03;;;;;;;4.60;4.30;;;;;;;;;;5067432;28;20952;-78
2022/10/19 13:58:52;;;;;;;3.83;3.63;;;;;;;;;;5071577;28;20425;-79
2022/10/19 14:01:26;;;;;;;11.63;3.43;;;;;;;;;;5071952;28;21219;-78
2022/10/19 14:04:01;;;;;;;4.20;3.80;;;;;;;;;;5070995;28;20429;-78
2022/10/19 14:06:33;;;;;;;3.43;3.23;;;;;;;;;;5071862;28;20464;-77
2022/10/19 14:09:27;;;;;;;4.23;3.83;;;;;;;;;;5071583;28;20436;-77
2022/10/19 14:11:54;;;;;;;3.83;3.47;;;;;;;;;;5072700;28;20453;-78
2022/10/19 14:14:23;;;;;;;3.40;3.20;;;;;;;;;;5071327;28;21005;-77
2022/10/19 14:16:56;;;;;;;5.10;3.57;;;;;;;;;;5071268;28;20441;-78
2022/10/19 14:19:27;;;;;;;3.80;3.50;;;;;;;;;;5071594;28;20908;-78
2022/10/19 14:21:56;;;;;;;3.60;3.40;;;;;;;;;;5071655;28;20528;-78
2022/10/19 14:24:28;;;;;;;4.27;3.97;;;;;;;;;;5071135;28;20532;-77
2022/10/19 14:26:55;;;;;;;4.10;3.00;;;;;;;;;;5071838;28;20465;-77
2022/10/19 14:29:23;;;;;;;5.03;3.80;;;;;;;;;;5071820;28;20440;-78
2022/10/19 14:31:50;;;;;;;4.60;4.23;;;;;;;;;;5071246;28;20465;-77
2022/10/19 14:34:18;;;;;;;6.77;5.10;;;;;;;;;;5070863;28;20453;-77
2022/10/19 14:36:47;;;;;;;4.50;3.33;;;;;;;;;;5071713;28;20436;-78
2022/10/19 14:39:29;;;;;;;3.83;3.53;;;;;;;;;;5071228;28;20448;-77
2022/10/19 14:41:56;;;;;;;3.40;3.20;;;;;;;;;;5068881;28;20631;-77
2022/10/19 14:44:35;;;;;;;3.43;3.13;;;;;;;;;;5071176;28;20444;-78